SRR25Q ZSHC-KRFD
Flight info
| Callsign | SRR25Q |
|---|---|
| Flight time | N/A |
| Altitude | 31100 |
| Route | OKTUG9D OKTUG B221 NINAS G327 LAMEN/N0497F310 A593 SADLI Y590 ELGEP B576 SOSDO Y571 PSN A586 TENAS/N0490F330 B467 KANSU/K0906F330 B467 NULAR L771 DITOR T575 PITUG/K0885F350 T575 BAMOL B931 GIRLO N222 VALDA/N0474F350 H222 ICEEE R338 OME J122 GAL NCA19 CHAPO DCT 63N130W/N0480F370 DCT YFS J521 YSM DCT PETMA Q963 YVC Q919 KENRU Q906 OTLUR Q834 DLH J538 DLL DCT KINZI ALEXS1 |
| Aircraft | B77L/H-SDE1E2E3FGHIJ2J3J4J5M1RWXY/LB1D1 |
Departure
| Time | 2026-05-07 17:48 |
|---|---|
| Airport | Hangzhou Xiaoshan International Airport (ZSHC) |
Arrival
| Time | N/A |
|---|---|
| Airport | Chicago Rockford International Airport (KRFD) |
| Time | Latitude | Longitude | Altitude | Speed | Heading |
|---|---|---|---|---|---|
| 2026-05-07 17:20 | 30.24956 | 120.44787 | 36 ft | 0 kts | 155° |
| 2026-05-07 17:35 | 30.24968 | 120.44781 | 34 ft | 4 kts | 155° |
| 2026-05-07 17:36 | 30.24993 | 120.44768 | 34 ft | 4 kts | 155° |
| 2026-05-07 17:36 | 30.25017 | 120.44755 | 36 ft | 4 kts | 155° |
| 2026-05-07 17:36 | 30.25038 | 120.44744 | 35 ft | 4 kts | 169° |
| 2026-05-07 17:36 | 30.25062 | 120.44747 | 35 ft | 4 kts | 217° |
| 2026-05-07 17:37 | 30.25078 | 120.44770 | 36 ft | 4 kts | 247° |
| 2026-05-07 17:37 | 30.25087 | 120.44794 | 36 ft | 0 kts | 244° |
| 2026-05-07 17:39 | 30.25086 | 120.44792 | 36 ft | 1 kts | 244° |
| 2026-05-07 17:39 | 30.25073 | 120.44762 | 35 ft | 8 kts | 244° |
| 2026-05-07 17:40 | 30.25040 | 120.44683 | 36 ft | 14 kts | 244° |
| 2026-05-07 17:40 | 30.24990 | 120.44564 | 36 ft | 17 kts | 244° |
| 2026-05-07 17:40 | 30.24971 | 120.44449 | 36 ft | 13 kts | 301° |
| 2026-05-07 17:40 | 30.25060 | 120.44380 | 36 ft | 18 kts | 319° |
| 2026-05-07 17:41 | 30.25038 | 120.44238 | 36 ft | 22 kts | 242° |
| 2026-05-07 17:41 | 30.24962 | 120.44068 | 36 ft | 25 kts | 243° |
| 2026-05-07 17:41 | 30.24880 | 120.43880 | 36 ft | 27 kts | 243° |
| 2026-05-07 17:41 | 30.24795 | 120.43690 | 36 ft | 27 kts | 243° |
| 2026-05-07 17:42 | 30.24710 | 120.43500 | 36 ft | 27 kts | 243° |
| 2026-05-07 17:42 | 30.24626 | 120.43310 | 36 ft | 27 kts | 243° |
| 2026-05-07 17:42 | 30.24542 | 120.43120 | 36 ft | 27 kts | 243° |
| 2026-05-07 17:42 | 30.24458 | 120.42930 | 36 ft | 27 kts | 243° |
| 2026-05-07 17:43 | 30.24375 | 120.42740 | 36 ft | 27 kts | 243° |
| 2026-05-07 17:43 | 30.24290 | 120.42550 | 36 ft | 27 kts | 243° |
| 2026-05-07 17:43 | 30.24206 | 120.42360 | 36 ft | 27 kts | 243° |
| 2026-05-07 17:43 | 30.24122 | 120.42170 | 35 ft | 27 kts | 242° |
| 2026-05-07 17:44 | 30.24038 | 120.41980 | 35 ft | 27 kts | 243° |
| 2026-05-07 17:44 | 30.23954 | 120.41790 | 36 ft | 27 kts | 243° |
| 2026-05-07 17:44 | 30.23870 | 120.41600 | 36 ft | 27 kts | 243° |
| 2026-05-07 17:44 | 30.23787 | 120.41415 | 36 ft | 25 kts | 243° |
| 2026-05-07 17:45 | 30.23711 | 120.41244 | 36 ft | 18 kts | 243° |
| 2026-05-07 17:45 | 30.23655 | 120.41117 | 36 ft | 18 kts | 243° |
| 2026-05-07 17:45 | 30.23610 | 120.41005 | 36 ft | 10 kts | 263° |
| 2026-05-07 17:45 | 30.23650 | 120.40947 | 37 ft | 10 kts | 326° |
| 2026-05-07 17:46 | 30.23711 | 120.40911 | 37 ft | 10 kts | 334° |
| 2026-05-07 17:46 | 30.23772 | 120.40877 | 38 ft | 10 kts | 335° |
| 2026-05-07 17:46 | 30.23835 | 120.40875 | 38 ft | 10 kts | 40° |
| 2026-05-07 17:46 | 30.23855 | 120.40910 | 39 ft | 2 kts | 61° |
| 2026-05-07 17:47 | 30.23894 | 120.40999 | 39 ft | 28 kts | 63° |
| 2026-05-07 17:47 | 30.24087 | 120.41432 | 35 ft | 95 kts | 63° |
| 2026-05-07 17:47 | 30.24484 | 120.42331 | 35 ft | 153 kts | 63° |
| 2026-05-07 17:47 | 30.25032 | 120.43566 | 163 ft | 182 kts | 62° |
| 2026-05-07 17:48 | 30.25580 | 120.44868 | 805 ft | 176 kts | 62° |
| 2026-05-07 17:48 | 30.26119 | 120.46160 | 1365 ft | 182 kts | 59° |
| 2026-05-07 17:48 | 30.26713 | 120.47508 | 1653 ft | 197 kts | 59° |
| 2026-05-07 17:48 | 30.27389 | 120.48975 | 1842 ft | 217 kts | 60° |
| 2026-05-07 17:49 | 30.28110 | 120.50563 | 2336 ft | 226 kts | 61° |
| 2026-05-07 17:49 | 30.28840 | 120.52189 | 2955 ft | 232 kts | 61° |
| 2026-05-07 17:49 | 30.29592 | 120.53879 | 3527 ft | 240 kts | 61° |
| 2026-05-07 17:49 | 30.30372 | 120.55637 | 4019 ft | 251 kts | 61° |
| 2026-05-07 17:50 | 30.31178 | 120.57462 | 4633 ft | 257 kts | 60° |
| 2026-05-07 17:50 | 30.31974 | 120.59353 | 5166 ft | 264 kts | 68° |
| 2026-05-07 17:50 | 30.32168 | 120.61495 | 5646 ft | 277 kts | 99° |
| 2026-05-07 17:50 | 30.31399 | 120.63503 | 6296 ft | 282 kts | 129° |
| 2026-05-07 17:51 | 30.29848 | 120.64986 | 6787 ft | 291 kts | 150° |
| 2026-05-07 17:51 | 30.28071 | 120.66056 | 7358 ft | 294 kts | 154° |
| 2026-05-07 17:51 | 30.26232 | 120.67114 | 7982 ft | 296 kts | 155° |
| 2026-05-07 17:51 | 30.24401 | 120.68170 | 8743 ft | 294 kts | 155° |
| 2026-05-07 17:52 | 30.22571 | 120.69231 | 9400 ft | 295 kts | 155° |
| 2026-05-07 17:52 | 30.20726 | 120.70304 | 9947 ft | 296 kts | 156° |
| 2026-05-07 17:52 | 30.18973 | 120.71562 | 9930 ft | 300 kts | 135° |
| 2026-05-07 17:52 | 30.17767 | 120.73550 | 9996 ft | 307 kts | 121° |
| 2026-05-07 17:53 | 30.16666 | 120.75682 | 9980 ft | 309 kts | 123° |
| 2026-05-07 17:53 | 30.15538 | 120.77792 | 10350 ft | 308 kts | 123° |
| 2026-05-07 17:53 | 30.14400 | 120.79903 | 10908 ft | 311 kts | 124° |
| 2026-05-07 17:53 | 30.13244 | 120.82045 | 11434 ft | 316 kts | 124° |
| 2026-05-07 17:54 | 30.12271 | 120.84318 | 11826 ft | 327 kts | 112° |
| 2026-05-07 17:54 | 30.11530 | 120.86900 | 11973 ft | 349 kts | 109° |
| 2026-05-07 17:54 | 30.10774 | 120.89651 | 12140 ft | 370 kts | 109° |
| 2026-05-07 17:54 | 30.09966 | 120.92547 | 12276 ft | 387 kts | 105° |
| 2026-05-07 17:55 | 30.09759 | 120.95707 | 12436 ft | 406 kts | 80° |
| 2026-05-07 17:55 | 30.10654 | 120.98828 | 12806 ft | 415 kts | 58° |
| 2026-05-07 17:55 | 30.12326 | 121.01541 | 13250 ft | 418 kts | 50° |
| 2026-05-07 17:55 | 30.14120 | 121.04234 | 13803 ft | 426 kts | 50° |
| 2026-05-07 17:56 | 30.15919 | 121.06973 | 14408 ft | 430 kts | 50° |
| 2026-05-07 17:56 | 30.17724 | 121.09752 | 15005 ft | 434 kts | 50° |
| 2026-05-07 17:56 | 30.19536 | 121.12563 | 15580 ft | 439 kts | 51° |
| 2026-05-07 17:56 | 30.21361 | 121.15410 | 16140 ft | 444 kts | 51° |
| 2026-05-07 17:57 | 30.23212 | 121.18302 | 16681 ft | 449 kts | 51° |
| 2026-05-07 17:57 | 30.24443 | 121.20228 | 17037 ft | 452 kts | 51° |
| 2026-05-07 17:57 | 30.26896 | 121.24225 | 17744 ft | 459 kts | 54° |
| 2026-05-07 17:57 | 30.28651 | 121.27334 | 18196 ft | 466 kts | 55° |
| 2026-05-07 17:58 | 30.30420 | 121.30514 | 18631 ft | 471 kts | 55° |
| 2026-05-07 17:58 | 30.32182 | 121.33676 | 19115 ft | 474 kts | 55° |
| 2026-05-07 17:58 | 30.33979 | 121.36879 | 19644 ft | 475 kts | 54° |
| 2026-05-07 17:58 | 30.35790 | 121.40093 | 20146 ft | 478 kts | 54° |
| 2026-05-07 17:59 | 30.37625 | 121.43323 | 20652 ft | 480 kts | 54° |
| 2026-05-07 17:59 | 30.39465 | 121.46548 | 21252 ft | 480 kts | 53° |
| 2026-05-07 17:59 | 30.41315 | 121.49784 | 21716 ft | 484 kts | 53° |
| 2026-05-07 17:59 | 30.43180 | 121.53048 | 22078 ft | 489 kts | 54° |
| 2026-05-07 18:00 | 30.45070 | 121.56361 | 22381 ft | 496 kts | 54° |
| 2026-05-07 18:00 | 30.46978 | 121.59716 | 22778 ft | 500 kts | 54° |
| 2026-05-07 18:00 | 30.48893 | 121.63089 | 23261 ft | 502 kts | 54° |
| 2026-05-07 18:00 | 30.50814 | 121.66478 | 23713 ft | 504 kts | 54° |
| 2026-05-07 18:01 | 30.52743 | 121.69883 | 24065 ft | 507 kts | 54° |
| 2026-05-07 18:01 | 30.54687 | 121.73318 | 24440 ft | 510 kts | 53° |
| 2026-05-07 18:01 | 30.56636 | 121.76763 | 24784 ft | 512 kts | 53° |
| 2026-05-07 18:01 | 30.58601 | 121.80237 | 25123 ft | 516 kts | 54° |
| 2026-05-07 18:02 | 30.62564 | 121.87256 | 25738 ft | 523 kts | 53° |
| 2026-05-07 18:02 | 30.64562 | 121.90800 | 26096 ft | 526 kts | 53° |
| 2026-05-07 18:02 | 30.66572 | 121.94368 | 26454 ft | 529 kts | 53° |
| 2026-05-07 18:03 | 30.68560 | 121.97902 | 26783 ft | 531 kts | 53° |
| 2026-05-07 18:03 | 30.70589 | 122.01513 | 27152 ft | 534 kts | 53° |
| 2026-05-07 18:03 | 30.72618 | 122.05127 | 27508 ft | 536 kts | 53° |
| 2026-05-07 18:03 | 30.74662 | 122.08768 | 27804 ft | 539 kts | 53° |
| 2026-05-07 18:04 | 30.76726 | 122.12418 | 28085 ft | 539 kts | 51° |
| 2026-05-07 18:04 | 30.79151 | 122.15723 | 28273 ft | 536 kts | 37° |
| 2026-05-07 18:04 | 30.82098 | 122.18316 | 28544 ft | 528 kts | 25° |
| 2026-05-07 18:04 | 30.85338 | 122.20235 | 28871 ft | 519 kts | 14° |
| 2026-05-07 18:05 | 30.88757 | 122.21418 | 29216 ft | 510 kts | 6° |
| 2026-05-07 18:05 | 30.92182 | 122.22492 | 29547 ft | 515 kts | 14° |
| 2026-05-07 18:05 | 30.95379 | 122.24543 | 29774 ft | 537 kts | 33° |
| 2026-05-07 18:05 | 30.97964 | 122.27756 | 30187 ft | 551 kts | 52° |
| 2026-05-07 18:06 | 30.99651 | 122.31790 | 30565 ft | 559 kts | 71° |
| 2026-05-07 18:06 | 31.00293 | 122.36249 | 30911 ft | 561 kts | 90° |
| 2026-05-07 18:06 | 31.00140 | 122.40787 | 31072 ft | 562 kts | 94° |
| 2026-05-07 18:07 | 30.99933 | 122.49917 | 31089 ft | 563 kts | 90° |
| 2026-05-07 18:07 | 31.00000 | 122.58948 | 31089 ft | 560 kts | 89° |
| 2026-05-07 18:08 | 31.00007 | 122.68013 | 31093 ft | 559 kts | 90° |
| 2026-05-07 18:08 | 31.00008 | 122.77072 | 31088 ft | 559 kts | 90° |
| 2026-05-07 18:09 | 31.00012 | 122.86129 | 31087 ft | 559 kts | 90° |
| 2026-05-07 18:09 | 31.00206 | 122.95184 | 31073 ft | 558 kts | 80° |
| 2026-05-07 18:09 | 31.01061 | 122.99571 | 31087 ft | 555 kts | 69° |
| 2026-05-07 18:10 | 31.02474 | 123.03745 | 31095 ft | 552 kts | 60° |
| 2026-05-07 18:10 | 31.04380 | 123.07591 | 31075 ft | 544 kts | 49° |
| 2026-05-07 18:10 | 31.06631 | 123.11141 | 31097 ft | 544 kts | 48° |
| 2026-05-07 18:11 | 31.11158 | 123.18253 | 31085 ft | 549 kts | 49° |
| 2026-05-07 18:11 | 31.15641 | 123.25503 | 31088 ft | 552 kts | 50° |
| 2026-05-07 18:12 | 31.20101 | 123.32833 | 31081 ft | 554 kts | 50° |
| 2026-05-07 18:12 | 31.24531 | 123.40125 | 31099 ft | 553 kts | 50° |
| 2026-05-07 18:13 | 31.28993 | 123.47466 | 31081 ft | 552 kts | 50° |
| 2026-05-07 18:13 | 31.33435 | 123.54782 | 31081 ft | 551 kts | 50° |
| 2026-05-07 18:14 | 31.37888 | 123.62071 | 31083 ft | 549 kts | 49° |
| 2026-05-07 18:14 | 31.42341 | 123.69335 | 31084 ft | 549 kts | 49° |
| 2026-05-07 18:15 | 31.46782 | 123.76604 | 31080 ft | 549 kts | 49° |
| 2026-05-07 18:15 | 31.51194 | 123.83849 | 31073 ft | 548 kts | 49° |
| 2026-05-07 18:16 | 31.55618 | 123.91127 | 31072 ft | 548 kts | 49° |
| 2026-05-07 18:16 | 31.59737 | 123.98682 | 31064 ft | 554 kts | 59° |
| 2026-05-07 18:17 | 31.62698 | 124.07068 | 31082 ft | 559 kts | 71° |
| 2026-05-07 18:17 | 31.64661 | 124.15923 | 31072 ft | 560 kts | 73° |
| 2026-05-07 18:18 | 31.66548 | 124.24796 | 31058 ft | 560 kts | 73° |
| 2026-05-07 18:18 | 31.68486 | 124.33658 | 31079 ft | 561 kts | 73° |
| 2026-05-07 18:19 | 31.70452 | 124.42520 | 31065 ft | 561 kts | 73° |
| 2026-05-07 18:19 | 31.72413 | 124.51386 | 31066 ft | 561 kts | 72° |
| 2026-05-07 18:20 | 31.74363 | 124.60264 | 31067 ft | 561 kts | 73° |
| 2026-05-07 18:20 | 31.76293 | 124.69087 | 31065 ft | 561 kts | 73° |
| 2026-05-07 18:21 | 31.78241 | 124.78024 | 31062 ft | 561 kts | 73° |
| 2026-05-07 18:21 | 31.80159 | 124.86855 | 31053 ft | 561 kts | 73° |
| 2026-05-07 18:22 | 31.81900 | 124.95804 | 31044 ft | 564 kts | 81° |
| 2026-05-07 18:22 | 31.82118 | 125.05018 | 31058 ft | 564 kts | 94° |
| 2026-05-07 18:23 | 31.80839 | 125.14096 | 31042 ft | 563 kts | 103° |
| 2026-05-07 18:23 | 31.79517 | 125.21583 | 31045 ft | 563 kts | 103° |
| 2026-05-07 18:24 | 31.77992 | 125.30605 | 31036 ft | 562 kts | 102° |
| 2026-05-07 18:24 | 31.76515 | 125.39637 | 31046 ft | 562 kts | 102° |
| 2026-05-07 18:25 | 31.74792 | 125.50125 | 31067 ft | 562 kts | 102° |
| 2026-05-07 18:25 | 31.73539 | 125.57681 | 31041 ft | 562 kts | 101° |